createdAt,value
2022-08-10T11:34:04.004Z,26.30
2022-08-10T11:37:16.967Z,25.56
2022-08-10T11:40:33.526Z,25.93
2022-08-10T11:44:05.474Z,25.08
2022-08-10T11:47:21.462Z,25.49
2022-08-10T11:51:00.522Z,25.02
2022-08-10T11:54:19.426Z,25.27
2022-08-10T11:57:55.825Z,25.49
2022-08-10T12:04:15.554Z,24.47
2022-08-10T12:10:03.617Z,25.03
2022-08-10T12:11:06.711Z,24.02
2022-08-10T12:14:37.601Z,24.56
2022-08-10T12:17:54.673Z,24.30
2022-08-10T12:21:26.724Z,23.89
2022-08-10T12:24:39.382Z,23.82
2022-08-10T12:28:08.752Z,23.88
2022-08-10T12:31:46.278Z,24.09
2022-08-10T12:35:17.215Z,23.75
2022-08-10T12:38:32.583Z,23.07
2022-08-10T12:42:06.201Z,22.69
2022-08-10T12:45:21.159Z,22.85
2022-08-10T12:48:52.723Z,23.27
2022-08-10T12:52:09.054Z,22.39
2022-08-10T12:55:42.759Z,22.67
2022-08-10T12:59:01.618Z,23.06
2022-08-10T13:02:28.747Z,22.34
2022-08-10T13:06:00.183Z,22.43
2022-08-10T13:09:26.834Z,22.60
2022-08-10T13:12:42.646Z,22.24
2022-08-10T13:16:20.747Z,22.29
2022-08-10T13:19:39.061Z,22.29
2022-08-10T13:23:08.711Z,21.87
2022-08-10T13:26:24.998Z,23.13
2022-08-10T13:30:04.008Z,21.12
2022-08-10T13:34:41.575Z,21.50
2022-08-10T13:36:52.892Z,22.01
2022-08-10T13:40:12.043Z,21.94
2022-08-10T13:43:42.791Z,20.78
2022-08-10T13:46:58.889Z,22.06
2022-08-10T13:50:33.483Z,21.93
2022-08-10T13:53:48.932Z,21.45
2022-08-10T13:57:25.897Z,22.26
2022-08-10T14:00:59.097Z,21.88
2022-08-10T14:04:27.904Z,21.41
2022-08-10T14:08:00.426Z,21.17
2022-08-10T14:11:21.956Z,21.41
2022-08-10T14:14:41.849Z,21.22
2022-08-10T14:18:13.921Z,19.83
2022-08-10T14:21:29.942Z,21.56
2022-08-10T14:25:08.881Z,20.13
2022-08-10T14:28:42.993Z,22.12
2022-08-10T14:32:11.936Z,21.69
2022-08-10T14:36:21.251Z,21.26
2022-08-10T14:39:05.122Z,22.67
2022-08-10T14:42:27.448Z,21.91
2022-08-10T14:46:01.551Z,22.83
2022-08-10T14:49:26.503Z,20.63
2022-08-10T14:52:52.026Z,20.65
2022-08-10T14:56:16.076Z,21.51
2022-08-10T15:00:25.210Z,22.57
2022-08-10T15:03:11.275Z,22.60
2022-08-10T15:06:41.939Z,22.87
2022-08-10T15:10:00.989Z,21.08
2022-08-10T15:13:35.346Z,22.30
2022-08-10T15:16:55.118Z,22.75
2022-08-10T15:20:32.095Z,22.35
2022-08-10T15:24:05.595Z,23.32
2022-08-10T15:27:25.303Z,22.93
2022-08-10T15:30:50.088Z,22.80
2022-08-10T15:34:28.948Z,22.42
2022-08-10T15:37:44.097Z,22.97
2022-08-10T15:41:18.268Z,21.62
2022-08-10T15:44:36.281Z,23.21
2022-08-10T15:48:07.521Z,23.12
2022-08-10T15:51:33.710Z,21.19
2022-08-10T15:58:10.897Z,22.81
2022-08-10T16:04:45.892Z,22.45
2022-08-10T16:08:14.645Z,23.25
2022-08-10T16:11:37.555Z,23.08
2022-08-10T16:18:16.075Z,22.31
2022-08-10T16:21:46.039Z,23.00
2022-08-10T16:24:57.621Z,23.70
2022-08-10T16:28:29.308Z,23.52
2022-08-10T16:32:06.617Z,23.54
2022-08-10T16:35:37.982Z,22.91
2022-08-10T16:38:57.055Z,23.76
2022-08-10T16:42:29.137Z,23.97
2022-08-10T16:45:45.018Z,23.30
2022-08-10T16:49:16.026Z,24.04
2022-08-10T16:52:33.088Z,23.21
2022-08-10T16:56:04.846Z,23.79
2022-08-10T16:59:28.133Z,23.71
2022-08-10T17:02:58.103Z,23.18
2022-08-10T17:06:14.028Z,22.45
2022-08-10T17:09:50.053Z,23.28
2022-08-10T17:13:06.175Z,24.08
2022-08-10T17:16:41.185Z,23.96
2022-08-10T17:20:31.476Z,23.94
2022-08-10T17:23:35.194Z,24.06
2022-08-10T17:26:53.087Z,23.51
2022-08-10T17:30:15.890Z,24.30
2022-08-10T17:33:28.126Z,23.59
2022-08-10T17:37:00.120Z,23.93
2022-08-10T17:40:16.247Z,24.01
2022-08-10T17:44:02.068Z,23.94
2022-08-10T17:47:11.561Z,24.65
2022-08-10T17:50:47.338Z,24.15
2022-08-10T17:54:07.409Z,24.40
2022-08-10T17:57:36.350Z,24.62
2022-08-10T18:01:38.716Z,24.61
2022-08-10T18:04:41.812Z,24.64
2022-08-10T18:07:55.216Z,24.64
2022-08-10T18:11:27.303Z,24.35
2022-08-10T18:14:43.307Z,24.84
2022-08-10T18:18:14.200Z,24.59
2022-08-10T18:21:32.318Z,25.23
2022-08-10T18:25:09.372Z,24.93
2022-08-10T18:28:27.579Z,25.12
2022-08-10T18:32:01.299Z,25.55
2022-08-10T18:35:17.325Z,25.26
2022-08-10T18:38:47.399Z,25.62
2022-08-10T18:42:05.429Z,26.01
2022-08-10T18:45:38.437Z,25.87
2022-08-10T18:48:52.896Z,26.27
2022-08-10T18:52:23.453Z,26.97
2022-08-10T18:56:09.059Z,26.52
2022-08-10T18:59:16.364Z,26.54
2022-08-10T19:02:41.552Z,26.95
2022-08-10T19:06:20.670Z,27.13
2022-08-10T19:09:47.127Z,27.37
2022-08-10T19:13:18.600Z,27.51
2022-08-10T19:16:35.805Z,27.79
2022-08-10T19:20:07.450Z,27.60
2022-08-10T19:23:27.668Z,27.83
2022-08-10T19:27:06.473Z,28.45
2022-08-10T19:30:30.807Z,28.35
2022-08-10T19:34:11.932Z,28.70
2022-08-10T19:37:43.503Z,29.31
2022-08-10T19:44:17.800Z,29.76
2022-08-10T19:47:58.614Z,30.04
2022-08-10T19:51:14.757Z,30.90
2022-08-10T19:58:17.638Z,31.21
2022-08-10T20:01:55.249Z,31.94
2022-08-10T20:05:21.769Z,31.82
2022-08-10T20:08:38.553Z,32.14
2022-08-10T20:12:10.559Z,32.23
2022-08-10T20:15:27.589Z,100.00
2022-08-10T20:22:46.806Z,33.36
2022-08-10T20:26:15.664Z,33.36
2022-08-10T20:29:57.329Z,34.14
2022-08-10T20:33:04.067Z,34.38
2022-08-10T20:36:23.765Z,34.60
2022-08-10T20:40:14.715Z,35.28
2022-08-10T20:46:52.805Z,35.16
2022-08-10T20:50:22.918Z,35.56
2022-08-10T20:53:40.669Z,35.57
2022-08-10T20:57:54.977Z,36.78
2022-08-10T21:00:35.895Z,36.64
2022-08-10T21:04:07.712Z,36.75
2022-08-10T21:08:05.110Z,36.95
2022-08-10T21:11:26.042Z,36.27
2022-08-10T21:14:48.154Z,38.19
2022-08-10T21:18:21.009Z,36.73
2022-08-10T21:21:42.154Z,37.36
2022-08-10T21:25:15.504Z,37.43
2022-08-10T21:28:49.853Z,37.77
2022-08-10T21:32:02.306Z,39.00
2022-08-10T21:35:20.388Z,38.09
2022-08-10T21:38:40.188Z,38.57
2022-08-10T21:42:03.678Z,39.03
2022-08-10T21:45:59.116Z,38.43
2022-08-10T21:49:07.679Z,39.57
2022-08-10T21:52:53.722Z,38.77
2022-08-10T21:56:14.330Z,38.34
2022-08-10T21:59:56.116Z,40.29
2022-08-10T22:03:15.876Z,39.91
2022-08-10T22:13:16.690Z,39.36
2022-08-10T22:16:51.378Z,39.18
2022-08-10T22:20:11.709Z,39.81
2022-08-10T22:23:51.934Z,40.13
2022-08-10T22:30:23.140Z,39.87
2022-08-10T22:33:58.477Z,39.45
2022-08-10T22:37:31.931Z,39.33
2022-08-10T22:41:07.997Z,39.36
2022-08-10T22:44:29.665Z,39.53
2022-08-10T22:48:11.129Z,40.42
2022-08-10T22:51:27.486Z,100.00
2022-08-10T22:55:20.189Z,41.41
2022-08-10T22:58:53.301Z,41.41
2022-08-10T23:02:22.552Z,40.57
2022-08-10T23:05:42.274Z,42.29
2022-08-10T23:09:11.366Z,41.63
2022-08-10T23:12:31.374Z,42.56
2022-08-10T23:19:11.121Z,41.98
2022-08-10T23:22:47.346Z,40.86
2022-08-10T23:26:06.323Z,41.84
2022-08-10T23:29:40.418Z,40.44
2022-08-10T23:32:59.745Z,41.01
2022-08-10T23:36:35.357Z,40.10
2022-08-10T23:39:51.415Z,40.49
2022-08-10T23:43:28.777Z,40.14
2022-08-10T23:46:39.401Z,40.27
2022-08-10T23:50:11.582Z,40.12
2022-08-10T23:53:27.667Z,41.51
2022-08-10T23:57:02.447Z,40.12
